Drake, Illinois
Current Conditions -  °F | °C
As of 1:15 PM on Monday 22 Dec 2014 (Local Time) from KPPQ Reporting Station
Overcast Overcast  
Wind Chill: 40°   Ceiling: 400
Heat Index: 44°   Visibility: 7mi
Dew Point: 42°   Wind: 8mph
Humidity: 93%   Direction: 140°SE
Pressure: 29.59"   Gusts: NA
Location:  39.403°N, 90.4171°W
Report Text: KPPQ 221915Z AUTO 14007KT 7SM OVC004 07/06 A2959 RMK AO2 T00670057
Loading
Personal Weather Stations






























Interactive Weather Map New forecast layout! Learn more

10-Day Weather Forecast

Advertisements
Track Severe Weather on mobile